x

Cape Elizabeth- 45nm Nw Of Aberdeen, Wa (46041) Wave Buoy

9:50 - Sun 30th Aug 2015 All times are PDT. -7 hours from GMT.

  • Sig Wave height 8.9ft
  • Swell Direction
  • Peak Period 15s
  • Average Period 8s
  • Wind
    16mph, 18mph gusts
  • Sea Temp 60°f
  • Ar Temp 59°f
  • Sea Pressure 1013.9mb
  • Cape Elizabeth- 45nm Nw Of Aberdeen, Wa
  • Cape Elizabeth- 45nm Nw Of Aberdeen, Wa

More Historic Weather Station data

Upgrade to MSW Pro to gain access to the past 30 days of data for over 8000 Wavebouys and Weather Stations around the globe.

Join Pro

Comparision Forecast

View Surf forecast
   
Dom 08/30 9:50 9ft 15s 8s 16 18 mph 1013.9mb 60f 59f
8:50 9ft 11s 8s 16 18 mph 1014.1mb 58f 59f
7:50 9ft 12s 8s 13 16 mph 1014.4mb 58f 59f
6:50 9ft 16s 8s 11 13 mph 1014.4mb 58f 58f
5:50 8ft 8s 8s 11 13 mph 1014.4mb 58f 59f
4:50 8ft 16s 8s 9 11 mph 1014.4mb 58f 59f
3:50 8ft 14s 8s 11 16 mph 1014.1mb 58f 59f
2:50 10ft 12s 9s 11 16 mph 1013.8mb 58f 59f
1:50 9ft 9s 9s 11 13 mph 1013.3mb 58f 59f
12:50 10ft 8s 9s 11 16 mph 1012.7mb 57f 59f
11:50 10.5ft 9s 9s 11 13 mph 1012.2mb 59f 59f
10:50 10.5ft 9s 8s 7 9 mph 1011.8mb 60f 60f
9:50 10.5ft 8s 8s 7 9 mph 1010.9mb 60f 61f
8:50 10.5ft 9s 8s 9
mph
1010.2mb 60f 61f
7:50 11ft 8s 8s 11 13 mph 1009.4mb 59f 61f
6:50 10ft 8s 8s 11 13 mph 1008.5mb 58f 60f
5:50 10ft 17s 8s 9 11 mph 1007.8mb 56f 58f
4:50 8.5ft 17s 7s 9 11 mph 1007.3mb 56f 57f
3:50 9ft 9s 7s 11 13 mph 1007mb 56f 56f
2:50 9.5ft 17s 7s 16 18 mph 1006.4mb 55f 56f
1:50 10ft 9s 7s 9 11 mph 1005.9mb 55f 57f
12:50 10ft 10s 7s 11 16 mph 1005.8mb 55f 56f
Sáb 08/29 11:50 11ft 9s 8s 16 20 mph 1005.9mb 56f 57f
10:50 11ft 9s 8s 13 16 mph 1006mb 57f 58f
9:50 13ft 11s 8s 9 11 mph 1006.4mb 58f 58f
8:50 14ft 11s 8s 16 18 mph 1006mb 60f 59f
7:50 16.5ft 12s 9s 16 20 mph 1005.6mb 60f 59f
6:50 17ft 12s 9s 13 18 mph 1005.6mb 61f 60f
5:50 16.5ft 11s 8s 18 22 mph 1005.3mb 61f 60f
4:50 15.5ft 11s 8s 20 25 mph 1004.6mb 61f 60f
3:50 14ft 11s 8s 27 36 mph 1003.9mb 60f 60f
2:50 14.5ft 11s 8s 25 31 mph 1003mb 60f 59f
1:50 15ft 11s 8s 16 22 mph 1002.8mb 55f 58f
12:50 16.5ft 11s 8s 22 27 mph 1001.9mb 55f 60f
11:50 17.5ft 11s 8s 22 34 mph 997.9mb 56f 59f
10:50 19ft 9s 8s 31 40 mph 996.3mb 56f 60f
9:50 13.5ft 8s 6s 49 63 mph 990.6mb 58f 60f
8:50 8ft 6s 5s 43 54 mph 992.6mb 59f 60f
7:50 6.5ft 6s 5s 29 36 mph 996.1mb 59f 61f
6:50 5ft 16s 5s 29 36 mph 996.3mb 59f 61f
5:50 5ft 16s 5s 29 38 mph 996.4mb 59f 61f
4:50 4.5ft 15s 5s 25 29 mph 997.3mb 60f 62f
3:50 3.5ft 15s 6s 25 34 mph 998.5mb 60f 62f
2:50 3.5ft 15s 7s 16 18 mph 998.1mb 60f 62f
1:50 3.5ft 15s 8s 13 18 mph 999.5mb 60f 61f
12:50 4ft 15s 8s 9 11 mph 1001.4mb 60f 60f
Sex 08/28 11:50 4ft 16s 8s 7
mph
1003mb 61f 60f
10:50 4ft 16s 7s 7 9 mph 1004.5mb 61f 60f
9:50 4.5ft 15s 7s 7 9 mph 1006.1mb 61f 60f
8:50 3.5ft 15s 7s 7
mph
1007.4mb 61f 60f
7:50 4ft 15s 7s 7 9 mph 1008.2mb 62f 60f
6:50 4.5ft 16s 7s 4
mph
1009.6mb 63f 60f
5:50 4ft 14s 7s 2 4 mph 1010.4mb 63f 60f
4:50 4ft 16s 7s 2
mph
1011.2mb 63f 60f
3:50 4ft 16s 6s 4
mph
1012.1mb 63f 60f
2:50 4ft 15s 7s 4 7 mph 1012.9mb 63f 59f
1:50 4ft 13s 6s 7 9 mph 1013.8mb 62f 58f
12:50 4.5ft 14s 6s 9 11 mph 1013.8mb 60f 58f
11:50 4.5ft 16s 6s 7 9 mph 1013.9mb 59f 58f
10:50 4.5ft 16s 6s 9 11 mph 1013.7mb 58f 58f
9:50 5ft 16s 6s 9
mph
1013.9mb 58f 59f
8:50 5ft 16s 6s 7 9 mph 1014.2mb 58f 59f
7:50 5ft 15s 6s 11 13 mph 1014.2mb 58f 60f
6:50 5ft 16s 6s 13 16 mph 1013.9mb 58f 59f
5:50 4.5ft 16s 6s 16 18 mph 1014.1mb 58f 59f
4:50 4ft 15s 6s 16 18 mph 1014.2mb 58f 59f
3:50 3.5ft 15s 6s 16 18 mph 1014.5mb 59f 59f
2:50 3.5ft 15s 6s 16 18 mph 1014.6mb 59f 58f
1:50 3.5ft 14s 7s 13 16 mph 1014.8mb 59f 59f
12:50 4ft 15s 8s 11
mph
1015mb 59f 59f
Qui 08/27 11:50 3.5ft 15s 7s 9 11 mph 1015.7mb 59f 58f
10:50 3.5ft 16s 7s 9 11 mph 1016.2mb 59f 59f
9:50 3.5ft 15s 7s 4
mph
1015.9mb 59f 59f
8:50 4.5ft 14s 7s 7 11 mph 1016mb 60f 59f
7:50 3.5ft 15s 7s 4 7 mph 1015.4mb 60f 58f
6:50 4ft 14s 7s 2 4 mph 1015.6mb 61f 57f
5:50 4ft 15s 7s 2
mph
1016.1mb 62f 58f
4:50 4ft 15s 7s 2 4 mph 1016.5mb 62f 57f
3:50 4.5ft 15s 8s 2
mph
1017mb 60f 57f
2:50 4ft 16s 8s 4
mph
1017.8mb 59f 58f
1:50 4ft 14s 7s 4 7 mph 1018.3mb 59f 58f
12:50 3.5ft 15s 7s 7 9 mph 1018.8mb 59f 57f
11:50 4ft 16s 7s 7 9 mph 1018.4mb 59f 57f
10:50 4ft 14s 8s 7 9 mph 1018.9mb 59f 57f
9:50 3.5ft 16s 8s 4
mph
1018.5mb 59f 58f
8:50 3.5ft 15s 8s 4 7 mph 1018.5mb 59f 58f
7:50 3.5ft 14s 8s 4 7 mph 1018.8mb 59f 58f
6:50 3.5ft 15s 8s 4 7 mph 1018.5mb 58f 58f
5:50 3ft 9s 8s 4
mph
1018.3mb 58f 58f